Terminal Aerodrome Forecast
Issued by NWS

Home | Current Version | Previous Version | Text Only | Print | Product List | Glossary On
Versions: 1 2 3 4 5 6 7 8 9 10 11 12 13 14
000
FTAK31 PAFA 200528
TAFAQT
TAF
PAQT 200528Z 2006/2106 15008KT P6SM SCT015 SCT025 BKN035
     FM200900 18010KT 6SM -SN BR BKN015 OVC025
     FM201200 18012KT 2SM -SN BR BKN007 OVC015
     FM201500 21012KT 1 1/2SM -SN BR OVC007
     FM201800 24018KT 2SM -SN BR BKN007 OVC015=

USA.gov is the U.S. government's official web portal to all federal, state and local government web resources and services.